createdAt,value
2023-01-21T00:01:02.764Z,96004.53
2023-01-21T00:03:06.883Z,96099.22
2023-01-21T00:05:10.341Z,96088.53
2023-01-21T00:07:12.999Z,96075.38
2023-01-21T00:09:15.974Z,96108.09
2023-01-21T00:11:18.628Z,96093.28
2023-01-21T00:13:21.268Z,96094.94
2023-01-21T00:15:23.994Z,96075.88
2023-01-21T00:17:26.633Z,96107.78
2023-01-21T00:19:30.636Z,96025.59
2023-01-21T00:21:33.294Z,96108.28
2023-01-21T00:23:36.032Z,96108.47
2023-01-21T00:25:38.713Z,96098.25
2023-01-21T00:27:41.562Z,96101.72
2023-01-21T00:29:44.219Z,96102.00
2023-01-21T00:31:46.949Z,96084.44
2023-01-21T00:33:50.368Z,96101.38
2023-01-21T00:36:00.487Z,96116.50
2023-01-21T00:38:03.150Z,96084.91
2023-01-21T00:40:07.680Z,96115.84
2023-01-21T00:42:11.158Z,96117.97
2023-01-21T00:44:13.900Z,96113.69
2023-01-21T00:46:16.997Z,96119.63
2023-01-21T00:48:19.687Z,96121.75
2023-01-21T00:50:22.408Z,96078.16
2023-01-21T00:52:27.112Z,96065.81
2023-01-21T00:54:31.259Z,96115.31
2023-01-21T00:56:34.018Z,96126.50
2023-01-21T00:58:37.525Z,96119.94
2023-01-21T01:00:40.520Z,95972.97
2023-01-21T01:02:43.317Z,96128.81
2023-01-21T01:04:46.047Z,96131.59
2023-01-21T01:06:48.778Z,96115.66
2023-01-21T01:08:54.240Z,96136.34
2023-01-21T01:10:56.981Z,96119.09
2023-01-21T01:13:01.446Z,96135.63
2023-01-21T01:15:04.592Z,96130.38
2023-01-21T01:17:07.312Z,96134.97
2023-01-21T01:19:10.928Z,96131.66
2023-01-21T01:21:15.358Z,96138.88
2023-01-21T01:23:18.072Z,96130.00
2023-01-21T01:25:22.207Z,96143.47
2023-01-21T01:27:25.005Z,96127.69
2023-01-21T01:29:28.486Z,96126.69
2023-01-21T01:31:31.241Z,96106.97
2023-01-21T01:33:34.616Z,96159.91
2023-01-21T01:35:37.318Z,96154.78
2023-01-21T01:37:40.070Z,96148.22
2023-01-21T01:39:42.844Z,96154.31
2023-01-21T01:41:46.930Z,96133.81
2023-01-21T01:44:01.042Z,96149.34
2023-01-21T01:46:03.850Z,96152.31
2023-01-21T01:48:06.715Z,96121.03
2023-01-21T01:50:13.889Z,96158.22
2023-01-21T01:52:18.211Z,96142.13
2023-01-21T01:54:25.464Z,96147.06
2023-01-21T01:56:30.199Z,96159.06
2023-01-21T01:58:35.424Z,96158.75
2023-01-21T02:00:38.671Z,96140.72
2023-01-21T02:03:04.203Z,96067.97
2023-01-21T02:05:10.245Z,96149.25
2023-01-21T02:07:13.281Z,96138.81
2023-01-21T02:09:15.996Z,96132.00
2023-01-21T02:11:20.560Z,96146.16
2023-01-21T02:13:24.582Z,96164.06
2023-01-21T02:15:36.872Z,96164.03
2023-01-21T02:17:55.262Z,96171.38
2023-01-21T02:20:33.380Z,96173.72
2023-01-21T02:22:41.348Z,96131.81
2023-01-21T02:25:21.085Z,96177.88
2023-01-21T02:27:40.413Z,96180.22
2023-01-21T02:30:13.976Z,96174.94
2023-01-21T02:32:53.457Z,96176.66
2023-01-21T02:35:02.232Z,96147.59
2023-01-21T02:37:11.990Z,96141.13
2023-01-21T02:39:27.338Z,96176.91
2023-01-21T02:41:42.835Z,96193.28
2023-01-21T02:43:54.795Z,96197.75
2023-01-21T02:46:02.831Z,96183.25
2023-01-21T02:48:12.413Z,96183.06
2023-01-21T02:50:23.027Z,96194.28
2023-01-21T02:52:26.742Z,96181.66
2023-01-21T02:54:53.183Z,96197.47
2023-01-21T02:56:55.846Z,96195.63
2023-01-21T02:59:02.840Z,96198.09
2023-01-21T03:01:16.558Z,96197.44
2023-01-21T03:03:53.750Z,96204.06
2023-01-21T03:06:26.783Z,96198.03
2023-01-21T03:08:34.010Z,96199.69
2023-01-21T03:10:41.808Z,96204.63
2023-01-21T03:12:56.889Z,96200.34
2023-01-21T03:15:23.116Z,96156.03
2023-01-21T03:17:35.430Z,96166.69
2023-01-21T03:19:44.095Z,96027.03
2023-01-21T03:21:50.002Z,96192.44
2023-01-21T03:23:54.873Z,96197.47
2023-01-21T03:25:59.737Z,96194.59
2023-01-21T03:28:07.527Z,96193.00
2023-01-21T03:30:14.465Z,96206.28
2023-01-21T03:32:19.339Z,96196.03
2023-01-21T03:34:26.515Z,96207.88
2023-01-21T03:36:37.187Z,96206.91
2023-01-21T03:38:48.982Z,96200.31
2023-01-21T03:40:57.493Z,96177.19
2023-01-21T03:43:00.396Z,96198.22
2023-01-21T03:45:03.621Z,96204.53
2023-01-21T03:47:15.798Z,96203.84
2023-01-21T03:49:23.809Z,96181.75
2023-01-21T03:51:33.876Z,96197.63
2023-01-21T03:53:36.651Z,96210.59
2023-01-21T03:55:41.230Z,96218.84
2023-01-21T03:57:43.980Z,96208.63
2023-01-21T03:59:46.670Z,96165.28
2023-01-21T04:01:49.364Z,96221.69
2023-01-21T04:03:52.049Z,96221.09
2023-01-21T04:05:54.736Z,96208.78
2023-01-21T04:07:57.359Z,96220.78
2023-01-21T04:10:00.051Z,96215.25
2023-01-21T04:12:04.417Z,96225.97
2023-01-21T04:14:07.126Z,96213.44
2023-01-21T04:16:10.193Z,96216.88
2023-01-21T04:18:12.843Z,96224.84
2023-01-21T04:20:16.096Z,96232.31
2023-01-21T04:22:19.411Z,96235.25
2023-01-21T04:24:22.059Z,96240.50
2023-01-21T04:26:24.766Z,96244.09
2023-01-21T04:28:29.783Z,96236.28
2023-01-21T04:30:32.486Z,96243.50
2023-01-21T04:32:37.113Z,96244.31
2023-01-21T04:34:39.726Z,96243.50
2023-01-21T04:36:42.373Z,96235.03
2023-01-21T04:38:46.179Z,96169.94
2023-01-21T04:40:48.858Z,96210.97
2023-01-21T04:42:51.598Z,96241.69
2023-01-21T04:44:55.641Z,96248.19
2023-01-21T04:46:58.443Z,96247.34
2023-01-21T04:49:01.135Z,96247.66
2023-01-21T04:51:04.087Z,96247.34
2023-01-21T04:53:06.802Z,96245.66
2023-01-21T04:55:10.551Z,96255.66
2023-01-21T04:57:13.318Z,96243.81
2023-01-21T04:59:16.081Z,96243.38
2023-01-21T05:01:20.301Z,96249.91
2023-01-21T05:03:23.073Z,96238.31
2023-01-21T05:05:25.823Z,96248.22
2023-01-21T05:07:28.779Z,96247.34
2023-01-21T05:09:31.466Z,96252.59
2023-01-21T05:11:34.155Z,96237.47
2023-01-21T05:13:36.832Z,96237.53
2023-01-21T05:15:39.612Z,96243.75
2023-01-21T05:17:43.731Z,96180.47
2023-01-21T05:19:47.101Z,96235.50
2023-01-21T05:21:49.790Z,96235.31
2023-01-21T05:23:52.501Z,96228.41
2023-01-21T05:25:55.412Z,96236.09
2023-01-21T05:27:58.086Z,96229.31
2023-01-21T05:30:00.785Z,96246.84
2023-01-21T05:32:03.481Z,96240.25
2023-01-21T05:34:07.537Z,96242.25
2023-01-21T05:36:11.113Z,96224.78
2023-01-21T05:38:13.810Z,96238.56
2023-01-21T05:40:17.567Z,96245.47
2023-01-21T05:42:20.456Z,96245.63
2023-01-21T05:44:23.158Z,96229.59
2023-01-21T05:46:26.060Z,96257.19
2023-01-21T05:48:30.059Z,96237.72
2023-01-21T05:50:34.191Z,96258.03
2023-01-21T05:52:37.048Z,96251.06
2023-01-21T05:54:52.529Z,96249.41
2023-01-21T05:57:02.435Z,96251.19
2023-01-21T05:59:05.158Z,96240.78
2023-01-21T06:01:08.012Z,96266.56
2023-01-21T06:03:10.705Z,96249.19
2023-01-21T06:05:14.509Z,96256.59
2023-01-21T06:07:18.624Z,96258.59
2023-01-21T06:09:21.285Z,96275.50
2023-01-21T06:11:24.233Z,96270.44
2023-01-21T06:13:26.961Z,96249.38
2023-01-21T06:15:29.907Z,96276.44
2023-01-21T06:17:32.687Z,96272.22
2023-01-21T06:19:35.414Z,96271.88
2023-01-21T06:21:38.151Z,96283.81
2023-01-21T06:23:42.190Z,96280.13
2023-01-21T06:25:44.909Z,96293.22
2023-01-21T06:27:47.629Z,96300.22
2023-01-21T06:29:50.397Z,96282.84
2023-01-21T06:31:53.202Z,96284.66
2023-01-21T06:33:55.945Z,96293.97
2023-01-21T06:35:58.682Z,96295.97
2023-01-21T06:38:01.365Z,96295.94
2023-01-21T06:40:07.369Z,96304.91
2023-01-21T06:42:10.077Z,96288.13
2023-01-21T06:44:13.009Z,96293.72
2023-01-21T06:46:15.785Z,96302.75
2023-01-21T06:48:18.589Z,96306.13
2023-01-21T06:50:21.351Z,96315.75
2023-01-21T06:52:26.883Z,96320.69
2023-01-21T06:54:30.598Z,96319.03
2023-01-21T06:56:36.863Z,96313.28
2023-01-21T06:58:39.574Z,96319.34
2023-01-21T07:00:42.260Z,96326.09
2023-01-21T07:02:45.370Z,96327.28
2023-01-21T07:04:49.934Z,96149.03
2023-01-21T07:06:52.840Z,96342.06
2023-01-21T07:08:55.584Z,96335.09
2023-01-21T07:10:58.507Z,96340.88
2023-01-21T07:13:02.557Z,96315.38
2023-01-21T07:15:06.452Z,96340.94
2023-01-21T07:17:09.214Z,96353.78
2023-01-21T07:19:12.482Z,96348.06
2023-01-21T07:21:15.207Z,96339.75
2023-01-21T07:23:17.903Z,96352.88
2023-01-21T07:25:20.747Z,96364.34
2023-01-21T07:27:23.434Z,96362.09
2023-01-21T07:29:28.003Z,96366.13
2023-01-21T07:31:30.822Z,96369.13
2023-01-21T07:33:33.557Z,96367.72
2023-01-21T07:35:36.449Z,96363.81
2023-01-21T07:37:39.160Z,96352.78
2023-01-21T07:39:41.840Z,96368.66
2023-01-21T07:41:44.519Z,96378.50
2023-01-21T07:43:48.658Z,96375.59
2023-01-21T07:45:52.919Z,96379.94
2023-01-21T07:47:55.601Z,96304.22
2023-01-21T07:49:58.273Z,96382.00
2023-01-21T07:52:00.961Z,96392.44
2023-01-21T07:54:03.687Z,96385.72
2023-01-21T07:56:07.144Z,96383.53
2023-01-21T07:58:10.704Z,96389.69
2023-01-21T08:00:14.498Z,96403.69
2023-01-21T08:02:18.621Z,96398.81
2023-01-21T08:04:21.443Z,96397.13
2023-01-21T08:06:24.167Z,96394.63
2023-01-21T08:08:26.939Z,96407.66
2023-01-21T08:10:29.687Z,96379.88
2023-01-21T08:12:32.373Z,96412.09
2023-01-21T08:14:35.655Z,96416.41
2023-01-21T08:16:38.496Z,96423.09
2023-01-21T08:18:42.545Z,96418.44
2023-01-21T08:20:45.531Z,96430.81
2023-01-21T08:22:48.282Z,96425.56
2023-01-21T08:24:50.998Z,96442.81
2023-01-21T08:26:53.729Z,96432.81
2023-01-21T08:28:56.520Z,96420.91
2023-01-21T08:31:04.737Z,96423.22
2023-01-21T08:33:07.491Z,96408.13
2023-01-21T08:35:12.449Z,96431.41
2023-01-21T08:37:15.276Z,96395.00
2023-01-21T08:39:18.022Z,96423.47
2023-01-21T08:41:20.704Z,96431.56
2023-01-21T08:43:23.437Z,96428.78
2023-01-21T08:45:26.203Z,96338.09
2023-01-21T08:47:29.072Z,96438.75
2023-01-21T08:49:31.781Z,96438.75
2023-01-21T08:51:36.145Z,96429.38
2023-01-21T08:53:42.653Z,96432.66
2023-01-21T08:55:45.425Z,96444.03
2023-01-21T08:57:51.949Z,96433.16
2023-01-21T08:59:54.750Z,96440.66
2023-01-21T09:01:57.953Z,96451.00
2023-01-21T09:04:01.921Z,96445.25
2023-01-21T09:06:06.602Z,96445.06
2023-01-21T09:08:10.701Z,96408.53
2023-01-21T09:10:34.111Z,96458.22
2023-01-21T09:12:38.245Z,96453.53
2023-01-21T09:14:40.947Z,96457.63
2023-01-21T09:16:43.734Z,96455.13
2023-01-21T09:18:47.362Z,96370.53
2023-01-21T09:20:50.121Z,96450.91
2023-01-21T09:22:52.853Z,96439.25
2023-01-21T09:24:56.926Z,96441.56
2023-01-21T09:26:59.672Z,96437.00
2023-01-21T09:29:02.894Z,96448.59
2023-01-21T09:31:07.232Z,96448.75
2023-01-21T09:33:09.906Z,96358.16
2023-01-21T09:35:12.606Z,96446.47
2023-01-21T09:37:15.348Z,96454.09
2023-01-21T09:39:18.173Z,96447.53
2023-01-21T09:41:27.074Z,96451.28
2023-01-21T09:43:35.955Z,96453.59
2023-01-21T09:45:39.616Z,96459.03
2023-01-21T09:47:45.929Z,96372.13
2023-01-21T09:49:52.221Z,96425.47
2023-01-21T09:52:01.599Z,96449.81
2023-01-21T09:54:11.767Z,96448.56
2023-01-21T09:56:26.853Z,96445.47
2023-01-21T09:58:38.326Z,96452.41
2023-01-21T10:00:47.780Z,96454.41
2023-01-21T10:02:58.884Z,96421.56
2023-01-21T10:05:18.174Z,96444.50
2023-01-21T10:07:27.738Z,96447.28
2023-01-21T10:09:48.106Z,96451.16
2023-01-21T10:12:26.117Z,96449.31
2023-01-21T10:14:49.302Z,96444.97
2023-01-21T10:17:03.019Z,96451.47
2023-01-21T10:19:08.882Z,96449.97
2023-01-21T10:21:21.611Z,96455.19
2023-01-21T10:23:31.720Z,96447.34
2023-01-21T10:25:37.552Z,96445.75
2023-01-21T10:27:44.673Z,96430.25
2023-01-21T10:29:51.423Z,96457.28
2023-01-21T10:31:59.319Z,96449.03
2023-01-21T10:34:02.563Z,96459.25
2023-01-21T10:36:27.029Z,96436.16
2023-01-21T10:38:36.249Z,96445.97
2023-01-21T10:40:48.052Z,96374.84
2023-01-21T10:43:04.940Z,96430.72
2023-01-21T10:45:18.673Z,96448.47
2023-01-21T10:47:32.327Z,96448.03
2023-01-21T10:49:53.018Z,96461.41
2023-01-21T10:52:01.824Z,96444.56
2023-01-21T10:54:12.814Z,96457.97
2023-01-21T10:56:24.004Z,96445.44
2023-01-21T10:58:33.363Z,96455.69
2023-01-21T11:00:42.997Z,96444.16
2023-01-21T11:02:50.321Z,96453.16
2023-01-21T11:04:53.391Z,96449.31
2023-01-21T11:07:01.439Z,96458.59
2023-01-21T11:09:06.299Z,96459.25
2023-01-21T11:11:10.206Z,96458.28
2023-01-21T11:13:14.849Z,96364.56
2023-01-21T11:15:20.861Z,96456.31
2023-01-21T11:17:32.963Z,96413.41
2023-01-21T11:19:35.645Z,96452.78
2023-01-21T11:21:39.957Z,96436.03
2023-01-21T11:23:42.779Z,96451.06
2023-01-21T11:25:45.521Z,96452.97
2023-01-21T11:27:48.217Z,96450.59
2023-01-21T11:29:51.557Z,96433.16
2023-01-21T11:32:04.108Z,96433.19
2023-01-21T11:34:08.190Z,96436.34
2023-01-21T11:36:14.398Z,96436.28
2023-01-21T11:38:33.227Z,96430.59
2023-01-21T11:40:36.086Z,96422.28
2023-01-21T11:42:48.148Z,96366.44
2023-01-21T11:44:53.495Z,96430.69
2023-01-21T11:46:57.607Z,96429.66
2023-01-21T11:49:20.127Z,96360.50
2023-01-21T11:51:23.026Z,96434.97
2023-01-21T11:53:25.719Z,96403.03
2023-01-21T11:55:29.877Z,96422.78
2023-01-21T11:57:34.156Z,96410.66
2023-01-21T11:59:41.686Z,96422.25
2023-01-21T12:01:52.444Z,96412.91
2023-01-21T12:04:00.732Z,96414.19
2023-01-21T12:06:04.263Z,96414.69
2023-01-21T12:08:08.618Z,96400.72
2023-01-21T12:10:25.555Z,96408.94
2023-01-21T12:12:40.536Z,96396.38
2023-01-21T12:14:51.988Z,96408.63
2023-01-21T12:17:09.264Z,96402.81
2023-01-21T12:19:35.683Z,96396.69
2023-01-21T12:21:52.528Z,96390.09
2023-01-21T12:24:09.783Z,96395.41
2023-01-21T12:26:39.302Z,96388.31
2023-01-21T12:28:58.870Z,96384.63
2023-01-21T12:31:12.088Z,96385.06
2023-01-21T12:33:22.316Z,96380.94
2023-01-21T12:35:33.085Z,96385.06
2023-01-21T12:37:42.895Z,96381.69
2023-01-21T12:39:48.433Z,96190.91
2023-01-21T12:42:03.007Z,96361.06
2023-01-21T12:44:21.070Z,96277.47
2023-01-21T12:46:28.585Z,96315.34
2023-01-21T12:48:36.730Z,96399.19
2023-01-21T12:50:43.742Z,96349.31
2023-01-21T12:52:57.361Z,96398.09
2023-01-21T12:55:06.109Z,96360.84
2023-01-21T12:57:17.598Z,96315.44
2023-01-21T12:59:27.114Z,96387.25
2023-01-21T13:01:47.402Z,96383.28
2023-01-21T13:03:59.402Z,96311.50
2023-01-21T13:06:07.294Z,96383.47
2023-01-21T13:08:32.526Z,96388.25
2023-01-21T13:10:38.263Z,96405.53
2023-01-21T13:12:45.026Z,96287.44
2023-01-21T13:14:52.076Z,96398.13
2023-01-21T13:16:59.992Z,96396.16
2023-01-21T13:19:02.754Z,96390.53
2023-01-21T13:21:15.282Z,96395.81
2023-01-21T13:23:23.575Z,96385.25
2023-01-21T13:25:36.259Z,96387.41
2023-01-21T13:27:46.159Z,96384.94
2023-01-21T13:29:58.370Z,96402.72
2023-01-21T13:32:16.451Z,96369.47
2023-01-21T13:34:26.964Z,96409.47
2023-01-21T13:36:55.929Z,96414.25
2023-01-21T13:39:05.209Z,96307.53
2023-01-21T13:41:25.832Z,96411.94
2023-01-21T13:43:55.235Z,96391.41
2023-01-21T13:46:09.205Z,96413.13
2023-01-21T13:48:30.823Z,96421.94
2023-01-21T13:50:51.481Z,96429.88
2023-01-21T13:53:24.169Z,96409.66
2023-01-21T13:55:39.480Z,96421.81
2023-01-21T13:58:02.932Z,96425.88
2023-01-21T14:00:12.811Z,96426.09
2023-01-21T14:02:19.274Z,96423.34
2023-01-21T14:04:30.500Z,96391.53
2023-01-21T14:06:39.791Z,96410.81
2023-01-21T14:08:50.751Z,96431.56
2023-01-21T14:10:57.632Z,96428.13
2023-01-21T14:13:29.132Z,96282.53
2023-01-21T14:15:51.093Z,96433.38
2023-01-21T14:18:33.631Z,96432.06
2023-01-21T14:20:56.950Z,96408.63
2023-01-21T14:23:25.776Z,96416.03
2023-01-21T14:25:44.965Z,96427.91
2023-01-21T14:27:58.155Z,96426.09
2023-01-21T14:30:10.651Z,96430.06
2023-01-21T14:32:21.022Z,96434.69
2023-01-21T14:34:28.626Z,96425.97
2023-01-21T14:36:39.338Z,96430.41
2023-01-21T14:38:53.973Z,96435.34
2023-01-21T14:41:07.152Z,96401.72
2023-01-21T14:43:20.000Z,96442.53
2023-01-21T14:45:25.844Z,96246.34
2023-01-21T14:47:48.141Z,96417.72
2023-01-21T14:49:52.619Z,96436.09
2023-01-21T14:51:55.459Z,96444.19
2023-01-21T14:54:01.292Z,96443.50
2023-01-21T14:56:20.988Z,96441.22
2023-01-21T14:58:28.743Z,96443.88
2023-01-21T15:00:34.074Z,96454.41
2023-01-21T15:02:42.502Z,96398.66
2023-01-21T15:04:55.299Z,96459.31
2023-01-21T15:07:01.570Z,96467.50
2023-01-21T15:09:05.484Z,96413.22
2023-01-21T15:11:18.460Z,96450.94
2023-01-21T15:13:31.539Z,96436.38
2023-01-21T15:15:36.962Z,96467.44
2023-01-21T15:17:47.858Z,96479.41
2023-01-21T15:19:58.157Z,96458.09
2023-01-21T15:22:21.661Z,96471.25
2023-01-21T15:24:26.777Z,96471.00
2023-01-21T15:26:34.053Z,96478.03
2023-01-21T15:28:41.569Z,96472.41
2023-01-21T15:30:59.169Z,96475.84
2023-01-21T15:33:02.181Z,96473.13
2023-01-21T15:35:16.567Z,96480.94
2023-01-21T15:37:23.632Z,96482.53
2023-01-21T15:39:33.258Z,96476.16
2023-01-21T15:41:47.482Z,96485.41
2023-01-21T15:43:59.596Z,96488.34
2023-01-21T15:46:17.240Z,96482.53
2023-01-21T15:48:43.884Z,96487.00
2023-01-21T15:50:53.255Z,96498.03
2023-01-21T15:53:25.770Z,96503.22
2023-01-21T15:55:45.657Z,96442.69
2023-01-21T15:57:53.394Z,96431.50
2023-01-21T16:00:22.902Z,96494.88
2023-01-21T16:02:30.042Z,96487.75
2023-01-21T16:04:38.731Z,96488.09
2023-01-21T16:06:50.482Z,96495.75
2023-01-21T16:09:04.819Z,96498.50
2023-01-21T16:11:22.707Z,96505.63
2023-01-21T16:13:37.119Z,96499.16
2023-01-21T16:15:50.216Z,96504.88
2023-01-21T16:18:07.759Z,96515.81
2023-01-21T16:20:13.569Z,96508.09
2023-01-21T16:22:21.929Z,96509.34
2023-01-21T16:24:28.807Z,96501.75
2023-01-21T16:26:33.165Z,96516.63
2023-01-21T16:28:49.048Z,96473.22
2023-01-21T16:30:56.546Z,96508.81
2023-01-21T16:33:13.535Z,96517.38
2023-01-21T16:35:16.946Z,96516.31
2023-01-21T16:37:21.648Z,96536.66
2023-01-21T16:39:24.932Z,96519.00
2023-01-21T16:41:27.853Z,96515.81
2023-01-21T16:43:30.617Z,96516.16
2023-01-21T16:45:34.688Z,96523.16
2023-01-21T16:47:37.793Z,96524.06
2023-01-21T16:49:43.392Z,96524.66
2023-01-21T16:51:54.254Z,96536.19
2023-01-21T16:54:28.365Z,96363.44
2023-01-21T16:56:31.321Z,96489.31
2023-01-21T16:58:36.029Z,96535.53
2023-01-21T17:00:40.057Z,96510.50
2023-01-21T17:02:42.753Z,96533.56
2023-01-21T17:04:45.494Z,96532.91
2023-01-21T17:06:48.606Z,96546.38
2023-01-21T17:08:55.440Z,96527.13
2023-01-21T17:11:00.592Z,96551.75
2023-01-21T17:13:05.715Z,96523.34
2023-01-21T17:15:19.873Z,96553.69
2023-01-21T17:17:25.118Z,96552.06
2023-01-21T17:19:32.476Z,96555.31
2023-01-21T17:21:37.960Z,96551.41
2023-01-21T17:23:47.520Z,96551.97
2023-01-21T17:25:56.509Z,96537.63
2023-01-21T17:27:59.323Z,96565.28
2023-01-21T17:30:27.505Z,96561.94
2023-01-21T17:32:34.062Z,96564.53
2023-01-21T17:34:39.820Z,96564.09
2023-01-21T17:36:44.931Z,96561.38
2023-01-21T17:38:48.697Z,96556.41
2023-01-21T17:41:02.007Z,96570.88
2023-01-21T17:43:18.740Z,96575.16
2023-01-21T17:45:30.970Z,96567.44
2023-01-21T17:47:51.945Z,96566.88
2023-01-21T17:50:04.089Z,96570.28
2023-01-21T17:52:06.811Z,96549.97
2023-01-21T17:54:20.090Z,96567.22
2023-01-21T17:56:37.577Z,96565.38
2023-01-21T17:58:49.291Z,96579.66
2023-01-21T18:00:52.138Z,96577.03
2023-01-21T18:02:56.275Z,96578.69
2023-01-21T18:04:58.949Z,96579.44
2023-01-21T18:07:02.100Z,96579.75
2023-01-21T18:09:05.425Z,96576.28
2023-01-21T18:11:08.103Z,96575.22
2023-01-21T18:13:13.140Z,96531.38
2023-01-21T18:15:18.312Z,96589.41
2023-01-21T18:17:24.611Z,96582.78
2023-01-21T18:19:32.207Z,96580.94
2023-01-21T18:21:34.863Z,96580.94
2023-01-21T18:23:37.516Z,96576.03
2023-01-21T18:25:40.634Z,96569.22
2023-01-21T18:27:46.781Z,96583.44
2023-01-21T18:29:49.546Z,96550.91
2023-01-21T18:31:52.341Z,96579.66
2023-01-21T18:33:55.099Z,96567.97
2023-01-21T18:35:59.770Z,96578.59
2023-01-21T18:38:02.505Z,96571.13
2023-01-21T18:40:06.334Z,96557.75
2023-01-21T18:42:12.730Z,96475.94
2023-01-21T18:44:16.136Z,96576.28
2023-01-21T18:46:19.807Z,96576.41
2023-01-21T18:48:28.492Z,96570.88
2023-01-21T18:50:31.571Z,96575.16
2023-01-21T18:52:35.742Z,96575.91
2023-01-21T18:54:38.516Z,96570.41
2023-01-21T18:56:42.404Z,96577.78
2023-01-21T18:58:45.172Z,96573.75
2023-01-21T19:00:48.064Z,96559.81
2023-01-21T19:02:53.479Z,96519.72
2023-01-21T19:04:56.210Z,96567.25
2023-01-21T19:06:58.996Z,96577.28
2023-01-21T19:09:03.061Z,96575.00
2023-01-21T19:11:06.014Z,96572.28
2023-01-21T19:13:09.897Z,96572.09
2023-01-21T19:15:15.992Z,96580.63
2023-01-21T19:17:26.767Z,96606.59
2023-01-21T19:19:29.509Z,96551.47
2023-01-21T19:21:32.337Z,96567.09
2023-01-21T19:23:35.787Z,96570.16
2023-01-21T19:25:39.891Z,96522.59
2023-01-21T19:27:45.235Z,96570.88
2023-01-21T19:29:48.074Z,96566.25
2023-01-21T19:31:50.876Z,96561.13
2023-01-21T19:33:53.892Z,96567.00
2023-01-21T19:36:01.356Z,96553.50
2023-01-21T19:38:10.616Z,96555.84
2023-01-21T19:40:18.007Z,96552.25
2023-01-21T19:42:22.170Z,96499.84
2023-01-21T19:44:24.958Z,96559.81
2023-01-21T19:46:28.794Z,96553.19
2023-01-21T19:48:31.671Z,96557.06
2023-01-21T19:50:34.374Z,96557.16
2023-01-21T19:52:38.052Z,96547.28
2023-01-21T19:54:40.721Z,96541.59
2023-01-21T19:56:43.437Z,96533.59
2023-01-21T19:58:48.811Z,96559.75
2023-01-21T20:00:53.570Z,96454.66
2023-01-21T20:02:56.768Z,96434.84
2023-01-21T20:04:59.442Z,96563.03
2023-01-21T20:07:02.336Z,96562.81
2023-01-21T20:09:06.037Z,96555.78
2023-01-21T20:11:08.739Z,96459.94
2023-01-21T20:13:13.052Z,96558.16
2023-01-21T20:15:18.915Z,96556.31
2023-01-21T20:17:22.183Z,96564.25
2023-01-21T20:19:24.984Z,96573.78
2023-01-21T20:21:27.737Z,96554.50
2023-01-21T20:23:32.535Z,96565.88
2023-01-21T20:25:38.759Z,96558.38
2023-01-21T20:27:41.583Z,96566.94
2023-01-21T20:29:55.673Z,96574.47
2023-01-21T20:32:00.063Z,96587.06
2023-01-21T20:34:02.844Z,96567.28
2023-01-21T20:36:07.826Z,96566.59
2023-01-21T20:38:14.278Z,96567.25
2023-01-21T20:40:20.151Z,96521.75
2023-01-21T20:42:22.906Z,96558.81
2023-01-21T20:44:25.594Z,96486.44
2023-01-21T20:46:30.424Z,96558.53
2023-01-21T20:48:37.278Z,96505.25
2023-01-21T20:50:39.952Z,96565.59
2023-01-21T20:52:42.634Z,96510.16
2023-01-21T20:54:45.307Z,96554.16
2023-01-21T20:56:48.230Z,96559.41
2023-01-21T20:58:50.971Z,96558.00
2023-01-21T21:00:53.675Z,96571.19
2023-01-21T21:02:57.589Z,96566.88
2023-01-21T21:05:01.680Z,96566.16
2023-01-21T21:07:04.395Z,96567.56
2023-01-21T21:09:07.036Z,96565.28
2023-01-21T21:11:10.164Z,96554.47
2023-01-21T21:13:14.038Z,96563.56
2023-01-21T21:15:19.351Z,96537.53
2023-01-21T21:17:22.673Z,96559.91
2023-01-21T21:19:25.388Z,96557.38
2023-01-21T21:21:29.487Z,96555.72
2023-01-21T21:23:32.140Z,96551.50
2023-01-21T21:25:42.213Z,96553.13
2023-01-21T21:27:45.830Z,96562.06
2023-01-21T21:29:48.564Z,96478.19
2023-01-21T21:31:52.027Z,96548.56
2023-01-21T21:33:54.761Z,96551.91
2023-01-21T21:35:57.950Z,96485.28
2023-01-21T21:38:06.158Z,96387.13
2023-01-21T21:40:10.420Z,96559.41
2023-01-21T21:42:32.212Z,96532.41
2023-01-21T21:44:36.253Z,96531.47
2023-01-21T21:46:57.569Z,96526.75
2023-01-21T21:49:01.170Z,96483.81
2023-01-21T21:51:04.732Z,96491.50
2023-01-21T21:53:12.169Z,96546.19
2023-01-21T21:55:19.312Z,96528.72
2023-01-21T21:57:22.176Z,96549.81
2023-01-21T21:59:25.978Z,96556.38
2023-01-21T22:01:31.093Z,96586.78
2023-01-21T22:03:33.908Z,96370.94
2023-01-21T22:05:37.686Z,96560.91
2023-01-21T22:07:40.423Z,96544.50
2023-01-21T22:09:44.486Z,96388.63
2023-01-21T22:11:47.201Z,96548.06
2023-01-21T22:13:51.759Z,96521.94
2023-01-21T22:15:55.692Z,96478.59
2023-01-21T22:17:58.398Z,96526.44
2023-01-21T22:20:01.151Z,96539.97
2023-01-21T22:22:03.866Z,96531.66
2023-01-21T22:24:08.220Z,96480.56
2023-01-21T22:26:15.081Z,96526.50
2023-01-21T22:28:20.115Z,96506.16
2023-01-21T22:30:22.951Z,96526.66
2023-01-21T22:32:25.727Z,96533.09
2023-01-21T22:34:28.452Z,96392.44
2023-01-21T22:36:32.276Z,96527.16
2023-01-21T22:38:36.151Z,96513.50
2023-01-21T22:40:40.156Z,96513.84
2023-01-21T22:42:44.228Z,96525.50
2023-01-21T22:44:46.952Z,96517.34
2023-01-21T22:46:49.639Z,96514.06
2023-01-21T22:48:53.620Z,96518.00
2023-01-21T22:50:58.868Z,96511.72
2023-01-21T22:53:01.639Z,96426.72
2023-01-21T22:55:04.794Z,96506.25
2023-01-21T22:57:07.572Z,96507.06
2023-01-21T22:59:11.677Z,96497.72
2023-01-21T23:01:24.955Z,96496.50
2023-01-21T23:03:29.011Z,96450.28
2023-01-21T23:05:32.807Z,96508.19
2023-01-21T23:07:35.605Z,96492.56
2023-01-21T23:09:38.362Z,96444.72
2023-01-21T23:11:41.539Z,96503.16
2023-01-21T23:13:44.686Z,96437.88
2023-01-21T23:15:48.826Z,96497.69
2023-01-21T23:17:53.653Z,96486.53
2023-01-21T23:19:56.362Z,96487.59
2023-01-21T23:21:59.080Z,96489.44
2023-01-21T23:24:01.812Z,96486.84
2023-01-21T23:26:05.656Z,96478.59
2023-01-21T23:28:08.534Z,96480.56
2023-01-21T23:30:14.157Z,96471.00
2023-01-21T23:32:18.182Z,96474.31
2023-01-21T23:34:22.686Z,96468.94
2023-01-21T23:36:25.641Z,96472.00
2023-01-21T23:38:28.953Z,96477.25
2023-01-21T23:40:31.675Z,96480.06
2023-01-21T23:42:34.420Z,96478.19
2023-01-21T23:44:37.118Z,96471.06
2023-01-21T23:46:39.980Z,96471.81
2023-01-21T23:48:44.347Z,96472.09
2023-01-21T23:50:47.052Z,96477.69
2023-01-21T23:52:49.819Z,96473.88
2023-01-21T23:54:52.670Z,96416.63
2023-01-21T23:56:56.203Z,96434.66
2023-01-21T23:58:58.901Z,96450.75
